OITM  Sahand Airport

Add Bookmark

Maragheh, Iran

Status IATA
Operational ACP
Latitude Longitude
37° 20' 52" N 46° 7' 40" E
37.348000 46.127899
Local (DST + 5) UTC (GMT + 4)
Oct 23, 2014 11:25 Oct 23, 2014 07:55
Sunrise-Sunset Local UTC
Begin Civil Twilight 06:13 02:43
Sunrise 06:39 03:09
Sunset 05:39 14:09
End Civil Twilight 06:06 14:36

Current Weather

METAR Observed VFR
OITM 230700Z 00000KT CAVOK 13/07 Q1023 Thu, Oct 23, 2014 @ 07:00 UTC
(55 Minutes ago)
Visual Flight Rules
Wind Visibility Clouds Conditions
Calm 10 km or more
  • Clear skies
  • No significant weather
Temperatures Readings Precipitation
Current Temp 13°C (55°F)
Dewpoint 7°C (45°F)
Humidity 67%
Altimeter 30.21"Hg
Sea Level Pressure 1023mb
Field Elevation 4396.33'
None Recorded

Additional weather within a 92.6km radius of OITM

Map ICAO Location
OITT 87.8km N (006°)

24 Hour Weather History

Loading
-

24 Hour Weather Graphs

Loading
-

CheckWX.com is intended as a tool to help pilots better visualize weather data. It is not intended as a substitute for an official weather briefing obtained from a Flight Service Station. CheckWX.com does not meet the FAA requirements for an official pre-flight weather briefing. Therefore, it's important that pilots still call and obtain an official FSS pre-flight weather briefing.